createdAt,value
2024-03-02T00:01:12.369Z,11.27
2024-03-02T00:03:40.763Z,10.40
2024-03-02T00:06:09.045Z,10.90
2024-03-02T00:08:37.549Z,7.67
2024-03-02T00:11:05.949Z,7.70
2024-03-02T00:13:36.892Z,8.00
2024-03-02T00:16:07.682Z,10.67
2024-03-02T00:18:37.964Z,12.00
2024-03-02T00:21:10.493Z,7.90
2024-03-02T00:23:39.807Z,12.30
2024-03-02T00:26:09.796Z,11.87
2024-03-02T00:28:39.800Z,12.70
2024-03-02T00:31:09.706Z,18.47
2024-03-02T00:33:39.986Z,15.20
2024-03-02T00:36:09.449Z,14.03
2024-03-02T00:38:47.192Z,11.60
2024-03-02T00:41:21.056Z,12.23
2024-03-02T00:43:59.585Z,11.00
2024-03-02T00:46:30.805Z,10.80
2024-03-02T00:49:01.410Z,9.00
2024-03-02T00:51:32.072Z,12.10
2024-03-02T00:54:02.010Z,12.00
2024-03-02T00:56:30.629Z,9.80
2024-03-02T00:59:00.244Z,11.93
2024-03-02T01:01:28.553Z,9.43
2024-03-02T01:03:56.867Z,9.77
2024-03-02T01:06:25.583Z,11.67
2024-03-02T01:08:54.127Z,10.60
2024-03-02T01:11:23.942Z,10.67
2024-03-02T01:13:53.730Z,11.53
2024-03-02T01:16:23.924Z,8.70
2024-03-02T01:18:52.402Z,11.30
2024-03-02T01:21:20.775Z,10.97
2024-03-02T01:23:49.187Z,9.90
2024-03-02T01:26:18.268Z,10.73
2024-03-02T01:28:46.477Z,13.63
2024-03-02T01:31:14.673Z,12.40
2024-03-02T01:33:44.237Z,12.97
2024-03-02T01:36:12.503Z,13.67
2024-03-02T01:38:40.731Z,11.60
2024-03-02T01:41:09.323Z,12.07
2024-03-02T01:43:40.286Z,11.90
2024-03-02T01:46:10.353Z,15.23
2024-03-02T01:48:38.746Z,10.93
2024-03-02T01:51:08.953Z,7.80
2024-03-02T01:53:37.379Z,13.97
2024-03-02T01:56:06.295Z,7.97
2024-03-02T01:58:34.555Z,11.60
2024-03-02T02:01:03.045Z,8.50
2024-03-02T02:03:31.444Z,14.40
2024-03-02T02:06:00.099Z,8.17
2024-03-02T02:08:29.598Z,10.03
2024-03-02T02:10:58.033Z,13.00
2024-03-02T02:13:26.356Z,13.50
2024-03-02T02:15:55.002Z,12.50
2024-03-02T02:18:23.492Z,9.67
2024-03-02T02:20:51.783Z,11.47
2024-03-02T02:23:21.299Z,11.00
2024-03-02T02:25:49.602Z,8.37
2024-03-02T02:28:19.105Z,9.83
2024-03-02T02:30:47.385Z,10.20
2024-03-02T02:33:15.739Z,9.03
2024-03-02T02:35:44.054Z,11.07
2024-03-02T02:38:12.302Z,9.07
2024-03-02T02:40:43.740Z,10.90
2024-03-02T02:43:11.940Z,9.07
2024-03-02T02:45:40.150Z,8.90
2024-03-02T02:48:08.981Z,12.70
2024-03-02T02:50:37.599Z,9.97
2024-03-02T02:53:06.190Z,10.77
2024-03-02T02:55:34.376Z,11.77
2024-03-02T02:58:03.977Z,8.50
2024-03-02T03:00:32.269Z,8.60
2024-03-02T03:03:00.534Z,9.40
2024-03-02T03:05:28.713Z,9.27
2024-03-02T03:07:56.907Z,11.90
2024-03-02T03:10:27.169Z,8.73
2024-03-02T03:12:57.366Z,9.30
2024-03-02T03:15:27.147Z,11.73
2024-03-02T03:17:55.664Z,10.97
2024-03-02T03:20:24.876Z,8.77
2024-03-02T03:22:53.216Z,8.67
2024-03-02T03:25:21.417Z,8.73
2024-03-02T03:27:49.739Z,12.17
2024-03-02T03:30:18.073Z,10.20
2024-03-02T03:32:49.231Z,9.47
2024-03-02T03:35:17.466Z,10.67
2024-03-02T03:37:45.748Z,10.57
2024-03-02T03:40:15.510Z,9.67
2024-03-02T03:42:43.853Z,10.93
2024-03-02T03:45:12.204Z,9.93
2024-03-02T03:47:40.466Z,11.90
2024-03-02T03:50:10.805Z,7.90
2024-03-02T03:52:39.008Z,8.60
2024-03-02T03:55:07.859Z,5.40
2024-03-02T03:57:36.402Z,7.20
2024-03-02T04:00:05.607Z,10.57
2024-03-02T04:02:40.646Z,8.10
2024-03-02T04:05:12.329Z,7.30
2024-03-02T04:07:41.910Z,9.97
2024-03-02T04:10:11.157Z,9.53
2024-03-02T04:12:39.580Z,8.50
2024-03-02T04:15:08.267Z,9.17
2024-03-02T04:17:37.111Z,9.67
2024-03-02T04:20:07.506Z,8.40
2024-03-02T04:22:37.647Z,8.73
2024-03-02T04:25:08.400Z,9.93
2024-03-02T04:27:36.914Z,9.40
2024-03-02T04:30:07.772Z,9.47
2024-03-02T04:32:37.393Z,10.63
2024-03-02T04:35:06.605Z,9.87
2024-03-02T04:37:37.927Z,9.43
2024-03-02T04:40:09.130Z,8.37
2024-03-02T04:42:37.689Z,8.70
2024-03-02T04:45:06.635Z,9.40
2024-03-02T04:47:34.854Z,9.60
2024-03-02T04:50:03.714Z,8.57
2024-03-02T04:52:31.960Z,9.73
2024-03-02T04:55:30.705Z,7.77
2024-03-02T04:57:59.065Z,6.63
2024-03-02T05:00:27.314Z,7.90
2024-03-02T05:02:55.613Z,7.00
2024-03-02T05:05:23.865Z,8.47
2024-03-02T05:07:52.130Z,9.50
2024-03-02T05:10:21.776Z,6.53
2024-03-02T05:12:58.160Z,7.53
2024-03-02T05:15:26.677Z,8.60
2024-03-02T05:17:55.232Z,10.47
2024-03-02T05:20:23.460Z,9.30
2024-03-02T05:22:51.780Z,7.50
2024-03-02T05:25:21.423Z,8.20
2024-03-02T05:27:49.713Z,6.90
2024-03-02T05:30:18.093Z,8.37
2024-03-02T05:32:46.432Z,10.20
2024-03-02T05:35:14.854Z,8.13
2024-03-02T05:37:43.045Z,5.47
2024-03-02T05:40:12.378Z,8.83
2024-03-02T05:42:42.695Z,8.53
2024-03-02T05:45:11.320Z,8.13
2024-03-02T05:47:39.665Z,6.67
2024-03-02T05:50:09.174Z,10.03
2024-03-02T05:52:37.357Z,7.60
2024-03-02T05:55:06.614Z,8.20
2024-03-02T05:57:48.531Z,5.80
2024-03-02T06:00:19.222Z,8.57
2024-03-02T06:02:47.689Z,7.97
2024-03-02T06:05:16.191Z,9.53
2024-03-02T06:07:45.165Z,5.30
2024-03-02T06:10:14.433Z,8.37
2024-03-02T06:12:43.174Z,7.30
2024-03-02T06:15:11.970Z,8.20
2024-03-02T06:17:41.564Z,8.83
2024-03-02T06:20:11.092Z,5.20
2024-03-02T06:22:39.357Z,6.07
2024-03-02T06:25:08.272Z,6.37
2024-03-02T06:27:35.991Z,6.70
2024-03-02T06:30:05.378Z,8.80
2024-03-02T06:32:33.809Z,9.53
2024-03-02T06:35:05.104Z,6.87
2024-03-02T06:37:33.325Z,6.50
2024-03-02T06:40:01.560Z,8.33
2024-03-02T06:42:34.209Z,8.50
2024-03-02T06:45:03.899Z,7.10
2024-03-02T06:47:32.390Z,8.10
2024-03-02T06:50:00.850Z,7.90
2024-03-02T06:52:30.525Z,5.87
2024-03-02T06:54:58.885Z,7.17
2024-03-02T06:57:27.375Z,6.93
2024-03-02T06:59:59.550Z,7.87
2024-03-02T07:02:27.876Z,6.10
2024-03-02T07:04:56.269Z,5.63
2024-03-02T07:07:24.484Z,7.67
2024-03-02T07:09:54.062Z,7.73
2024-03-02T07:12:22.410Z,6.40
2024-03-02T07:15:12.350Z,7.20
2024-03-02T07:17:40.702Z,6.73
2024-03-02T07:20:09.590Z,7.63
2024-03-02T07:22:40.486Z,9.83
2024-03-02T07:26:54.718Z,7.73
2024-03-02T07:28:00.044Z,8.23
2024-03-02T07:30:29.007Z,7.83
2024-03-02T07:32:58.005Z,8.23
2024-03-02T07:35:28.428Z,8.03
2024-03-02T07:37:56.790Z,8.43
2024-03-02T07:40:27.255Z,8.03
2024-03-02T07:42:56.021Z,8.90
2024-03-02T07:45:24.394Z,10.17
2024-03-02T07:47:52.850Z,9.00
2024-03-02T07:50:21.212Z,7.20
2024-03-02T07:52:49.437Z,7.67
2024-03-02T07:55:17.850Z,6.43
2024-03-02T07:57:47.454Z,10.23
2024-03-02T08:00:16.688Z,5.13
2024-03-02T08:02:45.007Z,7.47
2024-03-02T08:05:13.371Z,7.53
2024-03-02T08:07:42.065Z,8.67
2024-03-02T08:10:11.094Z,8.10
2024-03-02T08:12:39.468Z,8.90
2024-03-02T08:15:09.853Z,8.83
2024-03-02T08:17:38.698Z,9.70
2024-03-02T08:20:09.273Z,8.00
2024-03-02T08:22:37.574Z,10.80
2024-03-02T08:25:06.721Z,8.93
2024-03-02T08:27:35.171Z,9.27
2024-03-02T08:30:07.337Z,10.00
2024-03-02T08:32:36.937Z,9.07
2024-03-02T08:35:06.599Z,9.17
2024-03-02T08:37:34.867Z,8.63
2024-03-02T08:40:05.208Z,8.00
2024-03-02T08:42:33.638Z,9.00
2024-03-02T08:45:02.296Z,7.00
2024-03-02T08:47:30.627Z,8.27
2024-03-02T08:50:01.793Z,10.40
2024-03-02T08:52:30.515Z,9.87
2024-03-02T08:54:58.885Z,10.73
2024-03-02T08:57:27.221Z,8.83
2024-03-02T08:59:55.657Z,7.83
2024-03-02T09:02:24.300Z,8.93
2024-03-02T09:04:52.962Z,9.00
2024-03-02T09:07:22.486Z,9.60
2024-03-02T09:09:50.708Z,7.77
2024-03-02T09:12:18.998Z,10.27
2024-03-02T09:14:48.097Z,7.70
2024-03-02T09:17:16.407Z,7.43
2024-03-02T09:19:44.674Z,9.20
2024-03-02T09:22:12.981Z,11.03
2024-03-02T09:24:42.629Z,6.90
2024-03-02T09:27:10.890Z,6.20
2024-03-02T09:29:39.488Z,6.50
2024-03-02T09:32:09.283Z,7.77
2024-03-02T09:34:37.489Z,7.47
2024-03-02T09:37:06.119Z,9.50
2024-03-02T09:39:34.531Z,5.77
2024-03-02T09:42:06.425Z,5.87
2024-03-02T09:44:35.388Z,4.97
2024-03-02T09:47:03.722Z,7.20
2024-03-02T09:49:32.013Z,5.30
2024-03-02T09:52:00.384Z,6.60
2024-03-02T09:54:29.900Z,4.03
2024-03-02T09:56:58.199Z,5.60
2024-03-02T09:59:29.126Z,5.10
2024-03-02T10:01:59.308Z,6.40
2024-03-02T10:04:28.542Z,4.07
2024-03-02T10:07:13.915Z,7.10
2024-03-02T10:09:42.390Z,6.90
2024-03-02T10:12:12.595Z,6.10
2024-03-02T10:14:42.804Z,5.97
2024-03-02T10:17:12.116Z,4.90
2024-03-02T10:19:41.603Z,6.03
2024-03-02T10:22:12.192Z,4.27
2024-03-02T10:24:41.833Z,6.60
2024-03-02T10:27:12.335Z,4.73
2024-03-02T10:29:42.544Z,5.90
2024-03-02T10:32:12.339Z,4.70
2024-03-02T10:34:43.111Z,4.93
2024-03-02T10:37:13.005Z,5.20
2024-03-02T10:39:42.281Z,5.63
2024-03-02T10:42:11.467Z,5.30
2024-03-02T10:44:40.650Z,4.20
2024-03-02T10:47:11.282Z,4.70
2024-03-02T10:49:40.505Z,4.47
2024-03-02T10:52:10.435Z,4.43
2024-03-02T10:54:41.019Z,5.80
2024-03-02T10:57:11.516Z,5.00
2024-03-02T10:59:50.693Z,5.47
2024-03-02T11:02:23.434Z,5.17
2024-03-02T11:04:52.816Z,5.40
2024-03-02T11:07:23.219Z,3.40
2024-03-02T11:10:09.561Z,5.80
2024-03-02T11:12:41.255Z,6.73
2024-03-02T11:15:12.779Z,5.37
2024-03-02T11:17:42.941Z,6.47
2024-03-02T11:20:12.318Z,3.23
2024-03-02T11:22:40.694Z,5.27
2024-03-02T11:25:25.272Z,4.53
2024-03-02T11:28:06.871Z,4.40
2024-03-02T11:30:55.020Z,4.90
2024-03-02T11:33:30.705Z,4.23
2024-03-02T11:36:00.664Z,5.40
2024-03-02T11:38:36.239Z,5.80
2024-03-02T11:41:08.338Z,5.27
2024-03-02T11:43:41.312Z,5.87
2024-03-02T11:46:09.703Z,5.67
2024-03-02T11:48:41.710Z,6.77
2024-03-02T11:51:09.963Z,1.20
2024-03-02T11:53:41.338Z,4.00
2024-03-02T11:56:12.869Z,1.40
2024-03-02T11:58:42.524Z,4.13
2024-03-02T12:01:12.401Z,1.80
2024-03-02T12:03:42.109Z,5.00
2024-03-02T12:06:11.693Z,5.10
2024-03-02T12:08:41.601Z,5.50
2024-03-02T12:11:09.833Z,4.50
2024-03-02T12:13:38.064Z,5.60
2024-03-02T12:16:07.590Z,5.90
2024-03-02T12:18:36.035Z,7.40
2024-03-02T12:21:07.952Z,6.33
2024-03-02T12:23:36.739Z,7.60
2024-03-02T12:26:05.630Z,7.57
2024-03-02T12:28:35.204Z,6.20
2024-03-02T12:31:03.861Z,7.23
2024-03-02T12:33:32.741Z,7.27
2024-03-02T12:36:01.184Z,7.27
2024-03-02T12:38:30.732Z,5.50
2024-03-02T12:40:59.076Z,5.80
2024-03-02T12:43:32.349Z,6.83
2024-03-02T12:46:00.757Z,6.80
2024-03-02T12:48:29.125Z,6.27
2024-03-02T12:50:57.527Z,5.50
2024-03-02T12:53:25.882Z,7.20
2024-03-02T12:55:56.962Z,7.53
2024-03-02T12:58:25.404Z,8.50
2024-03-02T13:01:07.879Z,8.30
2024-03-02T13:03:37.638Z,6.27
2024-03-02T13:06:06.844Z,7.33
2024-03-02T13:08:35.269Z,8.63
2024-03-02T13:11:08.220Z,6.80
2024-03-02T13:13:36.752Z,6.90
2024-03-02T13:16:07.524Z,5.73
2024-03-02T13:18:36.086Z,7.23
2024-03-02T13:21:05.708Z,11.37
2024-03-02T13:23:33.908Z,7.17
2024-03-02T13:26:02.705Z,8.10
2024-03-02T13:28:32.451Z,7.20
2024-03-02T13:31:00.698Z,4.97
2024-03-02T13:33:29.189Z,5.40
2024-03-02T13:35:57.455Z,5.83
2024-03-02T13:38:25.658Z,8.50
2024-03-02T13:40:53.980Z,7.03
2024-03-02T13:43:22.302Z,7.80
2024-03-02T13:45:53.171Z,6.00
2024-03-02T13:48:21.702Z,6.17
2024-03-02T13:50:50.379Z,9.20
2024-03-02T13:53:18.913Z,5.63
2024-03-02T13:55:47.877Z,8.27
2024-03-02T13:58:16.297Z,3.00
2024-03-02T14:00:46.526Z,5.50
2024-03-02T14:03:16.938Z,6.47
2024-03-02T14:05:47.069Z,6.57
2024-03-02T14:08:15.272Z,5.00
2024-03-02T14:10:44.166Z,4.50
2024-03-02T14:13:12.424Z,6.50
2024-03-02T14:15:40.945Z,6.50
2024-03-02T14:18:11.039Z,4.60
2024-03-02T14:20:42.586Z,4.20
2024-03-02T14:23:12.301Z,4.90
2024-03-02T14:25:40.514Z,3.23
2024-03-02T14:28:27.166Z,2.70
2024-03-02T14:30:56.937Z,3.87
2024-03-02T14:33:25.255Z,3.47
2024-03-02T14:35:55.318Z,5.20
2024-03-02T14:38:23.668Z,3.03
2024-03-02T14:40:53.177Z,6.77
2024-03-02T14:43:22.584Z,6.47
2024-03-02T14:45:51.718Z,5.70
2024-03-02T14:48:20.038Z,6.40
2024-03-02T14:50:48.295Z,5.93
2024-03-02T14:53:17.821Z,4.60
2024-03-02T14:55:46.131Z,3.93
2024-03-02T14:58:14.425Z,6.77
2024-03-02T15:00:42.772Z,4.70
2024-03-02T15:03:12.637Z,5.60
2024-03-02T15:05:41.117Z,4.77
2024-03-02T15:08:09.525Z,4.30
2024-03-02T15:10:39.045Z,4.60
2024-03-02T15:13:07.326Z,3.10
2024-03-02T15:15:35.846Z,3.13
2024-03-02T15:18:06.536Z,4.90
2024-03-02T15:20:35.201Z,6.40
2024-03-02T15:23:03.493Z,3.37
2024-03-02T15:25:31.728Z,4.90
2024-03-02T15:28:01.520Z,4.97
2024-03-02T15:30:29.878Z,5.00
2024-03-02T15:32:58.525Z,5.60
2024-03-02T15:35:26.905Z,4.17
2024-03-02T15:37:55.352Z,5.30
2024-03-02T15:40:23.636Z,5.40
2024-03-02T15:42:51.966Z,5.20
2024-03-02T15:45:21.584Z,3.77
2024-03-02T15:47:49.990Z,5.70
2024-03-02T15:50:18.458Z,7.60
2024-03-02T15:52:48.025Z,6.30
2024-03-02T15:55:16.877Z,6.10
2024-03-02T15:57:45.422Z,6.77
2024-03-02T16:00:15.056Z,7.97
2024-03-02T16:02:44.608Z,5.47
2024-03-02T16:05:14.237Z,7.93
2024-03-02T16:07:42.592Z,6.20
2024-03-02T16:10:11.145Z,5.60
2024-03-02T16:12:39.482Z,6.00
2024-03-02T16:15:09.866Z,5.27
2024-03-02T16:17:38.092Z,8.17
2024-03-02T16:20:11.291Z,4.50
2024-03-02T16:22:39.632Z,7.73
2024-03-02T16:25:09.000Z,4.90
2024-03-02T16:27:37.337Z,6.47
2024-03-02T16:30:06.748Z,8.17
2024-03-02T16:32:35.292Z,9.17
2024-03-02T16:35:03.654Z,7.60
2024-03-02T16:37:33.700Z,6.20
2024-03-02T16:40:02.373Z,8.90
2024-03-02T16:42:30.831Z,7.00
2024-03-02T16:44:59.082Z,4.40
2024-03-02T16:47:27.715Z,7.57
2024-03-02T16:49:58.990Z,7.63
2024-03-02T16:52:29.799Z,6.90
2024-03-02T16:55:03.745Z,4.87
2024-03-02T16:57:33.214Z,4.90
2024-03-02T17:00:01.786Z,4.80
2024-03-02T17:02:30.004Z,8.37
2024-03-02T17:04:58.361Z,6.53
2024-03-02T17:07:30.009Z,5.20
2024-03-02T17:10:00.433Z,6.40
2024-03-02T17:12:28.966Z,5.17
2024-03-02T17:14:57.705Z,4.63
2024-03-02T17:17:25.961Z,6.37
2024-03-02T17:19:54.280Z,5.87
2024-03-02T17:22:22.535Z,5.60
2024-03-02T17:24:50.757Z,4.73
2024-03-02T17:27:20.551Z,6.73
2024-03-02T17:29:48.769Z,2.77
2024-03-02T17:32:16.989Z,6.60
2024-03-02T17:34:45.247Z,7.33
2024-03-02T17:37:13.729Z,5.23
2024-03-02T17:39:42.056Z,5.73
2024-03-02T17:42:10.591Z,3.93
2024-03-02T17:44:40.237Z,4.77
2024-03-02T17:47:08.553Z,7.40
2024-03-02T17:49:36.842Z,5.77
2024-03-02T17:52:05.696Z,6.53
2024-03-02T17:54:35.081Z,5.57
2024-03-02T17:57:03.909Z,7.47
2024-03-02T17:59:32.121Z,5.33
2024-03-02T18:02:03.620Z,7.23
2024-03-02T18:04:31.904Z,6.77
2024-03-02T18:07:00.410Z,8.23
2024-03-02T18:09:29.221Z,9.83
2024-03-02T18:11:57.581Z,6.40
2024-03-02T18:14:26.089Z,6.90
2024-03-02T18:16:54.371Z,6.10
2024-03-02T18:19:24.560Z,7.47
2024-03-02T18:21:52.871Z,6.30
2024-03-02T18:24:24.295Z,7.90
2024-03-02T18:26:52.579Z,6.23
2024-03-02T18:29:22.275Z,7.07
2024-03-02T18:31:50.555Z,6.47
2024-03-02T18:34:18.814Z,6.27
2024-03-02T18:36:48.453Z,7.73
2024-03-02T18:39:16.712Z,5.90
2024-03-02T18:41:45.024Z,4.17
2024-03-02T18:44:13.314Z,6.73
2024-03-02T18:46:41.773Z,6.23
2024-03-02T18:49:10.477Z,8.70
2024-03-02T18:51:40.413Z,7.73
2024-03-02T18:54:12.734Z,9.13
2024-03-02T18:56:41.039Z,9.10
2024-03-02T18:59:09.567Z,7.67
2024-03-02T19:01:37.913Z,8.30
2024-03-02T19:04:07.147Z,5.50
2024-03-02T19:06:35.586Z,7.80
2024-03-02T19:09:03.840Z,8.30
2024-03-02T19:11:33.467Z,7.67
2024-03-02T19:14:01.696Z,5.83
2024-03-02T19:16:29.901Z,6.00
2024-03-02T19:18:58.734Z,7.70
2024-03-02T19:21:27.024Z,7.23
2024-03-02T19:23:55.371Z,7.53
2024-03-02T19:26:23.714Z,6.90
2024-03-02T19:28:53.737Z,5.10
2024-03-02T19:31:22.122Z,5.80
2024-03-02T19:33:50.397Z,7.37
2024-03-02T19:36:18.680Z,5.00
2024-03-02T19:38:46.962Z,5.00
2024-03-02T19:41:16.039Z,6.07
2024-03-02T19:43:44.312Z,5.77
2024-03-02T19:46:14.286Z,8.90
2024-03-02T19:48:43.269Z,4.10
2024-03-02T19:51:11.673Z,6.87
2024-03-02T19:53:40.027Z,8.50
2024-03-02T19:56:08.356Z,7.00
2024-03-02T19:58:37.240Z,6.33
2024-03-02T20:01:05.816Z,8.27
2024-03-02T20:03:35.559Z,9.00
2024-03-02T20:06:03.990Z,8.13
2024-03-02T20:08:32.739Z,10.70
2024-03-02T20:11:04.234Z,8.50
2024-03-02T20:13:32.475Z,7.00
2024-03-02T20:16:01.094Z,8.73
2024-03-02T20:18:29.296Z,7.73
2024-03-02T20:20:58.822Z,7.83
2024-03-02T20:23:27.287Z,9.50
2024-03-02T20:25:58.881Z,6.70
2024-03-02T20:28:27.239Z,8.17
2024-03-02T20:30:55.536Z,8.27
2024-03-02T20:33:23.954Z,10.07
2024-03-02T20:35:52.224Z,9.00
2024-03-02T20:38:21.823Z,7.70
2024-03-02T20:40:52.224Z,13.53
2024-03-02T20:43:20.591Z,8.00
2024-03-02T20:45:49.030Z,6.27
2024-03-02T20:48:19.048Z,8.00
2024-03-02T20:50:49.601Z,8.47
2024-03-02T20:53:18.068Z,8.40
2024-03-02T20:55:47.583Z,8.50
2024-03-02T20:58:16.937Z,7.37
2024-03-02T21:00:45.624Z,10.40
2024-03-02T21:03:13.939Z,7.20
2024-03-02T21:05:42.156Z,8.60
2024-03-02T21:08:10.907Z,10.87
2024-03-02T21:10:39.141Z,9.70
2024-03-02T21:13:08.742Z,9.10
2024-03-02T21:15:37.032Z,10.67
2024-03-02T21:18:05.493Z,9.17
2024-03-02T21:20:33.781Z,12.80
2024-03-02T21:23:02.029Z,8.30
2024-03-02T21:25:35.003Z,11.07
2024-03-02T21:28:03.262Z,6.97
2024-03-02T21:30:35.821Z,8.60
2024-03-02T21:33:04.888Z,7.10
2024-03-02T21:35:33.596Z,8.23
2024-03-02T21:38:03.878Z,9.37
2024-03-02T21:40:33.121Z,8.40
2024-03-02T21:43:01.711Z,7.80
2024-03-02T21:45:30.023Z,12.70
2024-03-02T21:47:59.709Z,8.40
2024-03-02T21:50:29.966Z,11.53
2024-03-02T21:52:59.744Z,10.03
2024-03-02T21:55:28.109Z,7.70
2024-03-02T21:57:56.399Z,9.57
2024-03-02T22:00:25.330Z,8.30
2024-03-02T22:02:56.647Z,11.07
2024-03-02T22:05:29.831Z,9.20
2024-03-02T22:07:58.259Z,10.50
2024-03-02T22:10:26.539Z,8.10
2024-03-02T22:12:56.136Z,9.53
2024-03-02T22:15:24.495Z,9.03
2024-03-02T22:17:53.815Z,6.87
2024-03-02T22:20:22.080Z,7.20
2024-03-02T22:22:51.613Z,11.70
2024-03-02T22:25:19.896Z,8.17
2024-03-02T22:27:55.126Z,11.50
2024-03-02T22:30:24.170Z,11.13
2024-03-02T22:32:52.890Z,9.20
2024-03-02T22:35:23.875Z,12.73
2024-03-02T22:37:53.828Z,10.20
2024-03-02T22:40:23.844Z,9.57
2024-03-02T22:42:52.144Z,11.40
2024-03-02T22:45:20.520Z,6.83
2024-03-02T22:47:49.040Z,11.10
2024-03-02T22:50:18.224Z,10.87
2024-03-02T22:52:46.485Z,12.10
2024-03-02T22:55:16.229Z,9.40
2024-03-02T22:57:44.521Z,12.20
2024-03-02T23:00:32.221Z,9.80
2024-03-02T23:03:00.515Z,8.33
2024-03-02T23:05:28.732Z,12.50
2024-03-02T23:07:57.195Z,14.30
2024-03-02T23:10:26.971Z,12.83
2024-03-02T23:12:55.306Z,7.33
2024-03-02T23:15:24.273Z,12.90
2024-03-02T23:17:52.515Z,9.97
2024-03-02T23:20:20.792Z,10.33
2024-03-02T23:22:49.235Z,12.37
2024-03-02T23:25:17.579Z,11.33
2024-03-02T23:27:47.324Z,11.50
2024-03-02T23:30:15.588Z,13.33
2024-03-02T23:32:43.797Z,10.00
2024-03-02T23:35:12.305Z,10.60
2024-03-02T23:37:40.607Z,11.53
2024-03-02T23:40:36.648Z,8.57
2024-03-02T23:43:09.097Z,10.10
2024-03-02T23:45:37.413Z,14.40
2024-03-02T23:48:07.197Z,9.77
2024-03-02T23:50:35.468Z,11.87
2024-03-02T23:53:03.925Z,10.07
2024-03-02T23:55:42.916Z,12.33
2024-03-02T23:58:21.251Z,13.83
